sensor_id;sensor_type;location;lat;lon;timestamp;temperature;humidity
51613;DHT22;37694;51.748;14.326;2023-03-12T00:01:23;22.80;41.10
51613;DHT22;37694;51.748;14.326;2023-03-12T00:03:50;22.80;41.20
51613;DHT22;37694;51.748;14.326;2023-03-12T00:06:16;22.80;40.70
51613;DHT22;37694;51.748;14.326;2023-03-12T00:08:43;22.80;40.60
51613;DHT22;37694;51.748;14.326;2023-03-12T00:11:11;22.80;40.50
51613;DHT22;37694;51.748;14.326;2023-03-12T00:13:37;22.80;40.60
51613;DHT22;37694;51.748;14.326;2023-03-12T00:16:08;22.70;40.40
51613;DHT22;37694;51.748;14.326;2023-03-12T00:18:34;22.70;40.30
51613;DHT22;37694;51.748;14.326;2023-03-12T00:21:00;22.70;40.30
51613;DHT22;37694;51.748;14.326;2023-03-12T00:23:25;22.70;40.30
51613;DHT22;37694;51.748;14.326;2023-03-12T00:25:51;22.70;40.30
51613;DHT22;37694;51.748;14.326;2023-03-12T00:28:17;22.70;40.20
51613;DHT22;37694;51.748;14.326;2023-03-12T00:30:42;22.60;40.30
51613;DHT22;37694;51.748;14.326;2023-03-12T00:33:09;22.60;40.20
51613;DHT22;37694;51.748;14.326;2023-03-12T00:35:39;22.60;40.20
51613;DHT22;37694;51.748;14.326;2023-03-12T00:38:04;22.60;40.20
51613;DHT22;37694;51.748;14.326;2023-03-12T00:40:30;22.50;40.10
51613;DHT22;37694;51.748;14.326;2023-03-12T00:42:56;22.50;40.10
51613;DHT22;37694;51.748;14.326;2023-03-12T00:45:21;22.50;40.10
51613;DHT22;37694;51.748;14.326;2023-03-12T00:47:47;22.50;40.10
51613;DHT22;37694;51.748;14.326;2023-03-12T00:50:12;22.50;40.10
51613;DHT22;37694;51.748;14.326;2023-03-12T00:52:38;22.50;40.10
51613;DHT22;37694;51.748;14.326;2023-03-12T00:55:04;22.40;40.10
51613;DHT22;37694;51.748;14.326;2023-03-12T00:57:30;22.40;40.00
51613;DHT22;37694;51.748;14.326;2023-03-12T00:59:55;22.40;40.00
51613;DHT22;37694;51.748;14.326;2023-03-12T01:02:21;22.40;40.10
51613;DHT22;37694;51.748;14.326;2023-03-12T01:04:47;22.40;40.10
51613;DHT22;37694;51.748;14.326;2023-03-12T01:07:12;22.30;40.10
51613;DHT22;37694;51.748;14.326;2023-03-12T01:09:38;22.30;40.10
51613;DHT22;37694;51.748;14.326;2023-03-12T01:12:04;22.30;40.10
51613;DHT22;37694;51.748;14.326;2023-03-12T01:14:30;22.30;40.00
51613;DHT22;37694;51.748;14.326;2023-03-12T01:16:56;22.30;40.00
51613;DHT22;37694;51.748;14.326;2023-03-12T01:19:21;22.20;40.00
51613;DHT22;37694;51.748;14.326;2023-03-12T01:21:47;22.20;40.00
51613;DHT22;37694;51.748;14.326;2023-03-12T01:24:13;22.20;40.00
51613;DHT22;37694;51.748;14.326;2023-03-12T01:26:38;22.20;40.00
51613;DHT22;37694;51.748;14.326;2023-03-12T01:29:04;22.10;40.00
51613;DHT22;37694;51.748;14.326;2023-03-12T01:31:30;22.10;40.00
51613;DHT22;37694;51.748;14.326;2023-03-12T01:33:56;22.10;39.90
51613;DHT22;37694;51.748;14.326;2023-03-12T01:36:24;22.10;39.90
51613;DHT22;37694;51.748;14.326;2023-03-12T01:38:55;22.10;40.00
51613;DHT22;37694;51.748;14.326;2023-03-12T01:41:21;22.00;40.00
51613;DHT22;37694;51.748;14.326;2023-03-12T01:43:48;22.00;39.90
51613;DHT22;37694;51.748;14.326;2023-03-12T01:46:38;22.00;39.90
51613;DHT22;37694;51.748;14.326;2023-03-12T01:49:17;22.00;39.90
51613;DHT22;37694;51.748;14.326;2023-03-12T01:51:45;22.00;40.00
51613;DHT22;37694;51.748;14.326;2023-03-12T01:54:21;22.00;40.00
51613;DHT22;37694;51.748;14.326;2023-03-12T01:56:48;21.90;39.80
51613;DHT22;37694;51.748;14.326;2023-03-12T01:59:21;21.90;39.90
51613;DHT22;37694;51.748;14.326;2023-03-12T02:01:47;21.90;39.90
51613;DHT22;37694;51.748;14.326;2023-03-12T02:04:17;21.90;39.90
51613;DHT22;37694;51.748;14.326;2023-03-12T02:06:53;21.90;39.90
51613;DHT22;37694;51.748;14.326;2023-03-12T02:09:22;21.90;39.90
51613;DHT22;37694;51.748;14.326;2023-03-12T02:11:49;21.80;39.80
51613;DHT22;37694;51.748;14.326;2023-03-12T02:14:15;21.80;39.90
51613;DHT22;37694;51.748;14.326;2023-03-12T02:16:42;21.80;40.60
51613;DHT22;37694;51.748;14.326;2023-03-12T02:19:17;21.80;39.80
51613;DHT22;37694;51.748;14.326;2023-03-12T02:21:46;21.80;39.80
51613;DHT22;37694;51.748;14.326;2023-03-12T02:24:29;21.70;39.80
51613;DHT22;37694;51.748;14.326;2023-03-12T02:26:57;21.70;39.70
51613;DHT22;37694;51.748;14.326;2023-03-12T02:29:25;21.70;39.80
51613;DHT22;37694;51.748;14.326;2023-03-12T02:31:54;21.70;39.80
51613;DHT22;37694;51.748;14.326;2023-03-12T02:34:21;21.70;39.80
51613;DHT22;37694;51.748;14.326;2023-03-12T02:36:47;21.70;39.70
51613;DHT22;37694;51.748;14.326;2023-03-12T02:39:13;21.70;39.70
51613;DHT22;37694;51.748;14.326;2023-03-12T02:41:46;21.70;39.70
51613;DHT22;37694;51.748;14.326;2023-03-12T02:46:50;21.60;39.80
51613;DHT22;37694;51.748;14.326;2023-03-12T02:49:18;21.60;39.80
51613;DHT22;37694;51.748;14.326;2023-03-12T02:51:45;21.60;39.70
51613;DHT22;37694;51.748;14.326;2023-03-12T02:54:13;21.60;40.50
51613;DHT22;37694;51.748;14.326;2023-03-12T02:56:39;21.60;39.70
51613;DHT22;37694;51.748;14.326;2023-03-12T02:59:07;21.50;39.70
51613;DHT22;37694;51.748;14.326;2023-03-12T03:01:33;21.50;39.70
51613;DHT22;37694;51.748;14.326;2023-03-12T03:04:01;21.60;39.70
51613;DHT22;37694;51.748;14.326;2023-03-12T03:06:27;21.50;39.60
51613;DHT22;37694;51.748;14.326;2023-03-12T03:08:53;21.50;39.70
51613;DHT22;37694;51.748;14.326;2023-03-12T03:11:18;21.40;39.60
51613;DHT22;37694;51.748;14.326;2023-03-12T03:13:49;21.50;39.70
51613;DHT22;37694;51.748;14.326;2023-03-12T03:16:14;21.50;39.70
51613;DHT22;37694;51.748;14.326;2023-03-12T03:18:40;21.40;39.60
51613;DHT22;37694;51.748;14.326;2023-03-12T03:21:07;21.50;39.70
51613;DHT22;37694;51.748;14.326;2023-03-12T03:23:34;21.40;39.70
51613;DHT22;37694;51.748;14.326;2023-03-12T03:26:00;21.40;39.60
51613;DHT22;37694;51.748;14.326;2023-03-12T03:28:28;21.40;39.60
51613;DHT22;37694;51.748;14.326;2023-03-12T03:30:56;21.40;39.60
51613;DHT22;37694;51.748;14.326;2023-03-12T03:33:23;21.40;39.70
51613;DHT22;37694;51.748;14.326;2023-03-12T03:35:49;21.40;39.60
51613;DHT22;37694;51.748;14.326;2023-03-12T03:38:15;21.40;39.60
51613;DHT22;37694;51.748;14.326;2023-03-12T03:40:41;21.40;39.60
51613;DHT22;37694;51.748;14.326;2023-03-12T03:43:06;21.40;39.60
51613;DHT22;37694;51.748;14.326;2023-03-12T03:45:32;21.30;39.60
51613;DHT22;37694;51.748;14.326;2023-03-12T03:47:58;21.30;39.60
51613;DHT22;37694;51.748;14.326;2023-03-12T03:50:23;21.30;39.60
51613;DHT22;37694;51.748;14.326;2023-03-12T03:52:49;21.30;39.60
51613;DHT22;37694;51.748;14.326;2023-03-12T03:55:15;21.30;39.70
51613;DHT22;37694;51.748;14.326;2023-03-12T03:57:40;21.20;39.60
51613;DHT22;37694;51.748;14.326;2023-03-12T04:00:07;21.30;40.50
51613;DHT22;37694;51.748;14.326;2023-03-12T04:02:34;21.30;39.70
51613;DHT22;37694;51.748;14.326;2023-03-12T04:05:01;21.30;39.60
51613;DHT22;37694;51.748;14.326;2023-03-12T04:07:27;21.20;39.60
51613;DHT22;37694;51.748;14.326;2023-03-12T04:09:53;21.20;39.60
51613;DHT22;37694;51.748;14.326;2023-03-12T04:12:20;21.20;39.70
51613;DHT22;37694;51.748;14.326;2023-03-12T04:14:45;21.20;39.70
51613;DHT22;37694;51.748;14.326;2023-03-12T04:17:11;21.20;39.60
51613;DHT22;37694;51.748;14.326;2023-03-12T04:19:37;21.20;39.60
51613;DHT22;37694;51.748;14.326;2023-03-12T04:22:03;21.20;39.60
51613;DHT22;37694;51.748;14.326;2023-03-12T04:24:29;21.20;39.70
51613;DHT22;37694;51.748;14.326;2023-03-12T04:26:56;21.20;39.70
51613;DHT22;37694;51.748;14.326;2023-03-12T04:29:22;21.10;39.70
51613;DHT22;37694;51.748;14.326;2023-03-12T04:31:47;21.10;39.70
51613;DHT22;37694;51.748;14.326;2023-03-12T04:34:13;21.10;39.70
51613;DHT22;37694;51.748;14.326;2023-03-12T04:36:39;21.10;39.70
51613;DHT22;37694;51.748;14.326;2023-03-12T04:39:04;21.10;39.70
51613;DHT22;37694;51.748;14.326;2023-03-12T04:41:34;21.10;39.80
51613;DHT22;37694;51.748;14.326;2023-03-12T04:44:00;21.10;39.70
51613;DHT22;37694;51.748;14.326;2023-03-12T04:46:26;21.00;39.80
51613;DHT22;37694;51.748;14.326;2023-03-12T04:48:52;21.00;39.70
51613;DHT22;37694;51.748;14.326;2023-03-12T04:51:17;21.00;39.70
51613;DHT22;37694;51.748;14.326;2023-03-12T04:53:43;21.00;39.70
51613;DHT22;37694;51.748;14.326;2023-03-12T04:56:09;21.00;39.70
51613;DHT22;37694;51.748;14.326;2023-03-12T04:58:34;21.00;39.70
51613;DHT22;37694;51.748;14.326;2023-03-12T05:01:01;21.00;39.90
51613;DHT22;37694;51.748;14.326;2023-03-12T05:03:27;21.00;39.90
51613;DHT22;37694;51.748;14.326;2023-03-12T05:05:53;21.00;39.90
51613;DHT22;37694;51.748;14.326;2023-03-12T05:08:18;21.00;39.80
51613;DHT22;37694;51.748;14.326;2023-03-12T05:10:44;21.00;39.80
51613;DHT22;37694;51.748;14.326;2023-03-12T05:13:15;20.90;39.80
51613;DHT22;37694;51.748;14.326;2023-03-12T05:15:41;21.00;39.90
51613;DHT22;37694;51.748;14.326;2023-03-12T05:18:07;20.90;40.00
51613;DHT22;37694;51.748;14.326;2023-03-12T05:20:33;20.90;40.00
51613;DHT22;37694;51.748;14.326;2023-03-12T05:22:58;20.90;40.00
51613;DHT22;37694;51.748;14.326;2023-03-12T05:25:24;20.90;40.20
51613;DHT22;37694;51.748;14.326;2023-03-12T05:27:50;20.90;41.00
51613;DHT22;37694;51.748;14.326;2023-03-12T05:30:15;20.90;40.20
51613;DHT22;37694;51.748;14.326;2023-03-12T05:32:41;20.90;40.20
51613;DHT22;37694;51.748;14.326;2023-03-12T05:35:07;20.90;40.20
51613;DHT22;37694;51.748;14.326;2023-03-12T05:37:34;20.90;40.30
51613;DHT22;37694;51.748;14.326;2023-03-12T05:39:59;21.00;40.20
51613;DHT22;37694;51.748;14.326;2023-03-12T05:42:25;21.00;40.20
51613;DHT22;37694;51.748;14.326;2023-03-12T05:44:51;21.00;40.20
51613;DHT22;37694;51.748;14.326;2023-03-12T05:47:17;21.00;40.30
51613;DHT22;37694;51.748;14.326;2023-03-12T05:49:43;21.00;40.20
51613;DHT22;37694;51.748;14.326;2023-03-12T05:52:09;21.00;40.30
51613;DHT22;37694;51.748;14.326;2023-03-12T05:54:35;21.00;40.30
51613;DHT22;37694;51.748;14.326;2023-03-12T05:57:00;21.00;40.50
51613;DHT22;37694;51.748;14.326;2023-03-12T05:59:28;21.00;40.80
51613;DHT22;37694;51.748;14.326;2023-03-12T06:01:54;20.90;40.90
51613;DHT22;37694;51.748;14.326;2023-03-12T06:04:20;20.90;40.90
51613;DHT22;37694;51.748;14.326;2023-03-12T06:06:46;21.00;41.20
51613;DHT22;37694;51.748;14.326;2023-03-12T06:09:11;20.90;41.50
51613;DHT22;37694;51.748;14.326;2023-03-12T06:11:37;21.00;41.50
51613;DHT22;37694;51.748;14.326;2023-03-12T06:14:03;21.00;42.20
51613;DHT22;37694;51.748;14.326;2023-03-12T06:16:29;21.00;42.30
51613;DHT22;37694;51.748;14.326;2023-03-12T06:18:56;21.10;42.20
51613;DHT22;37694;51.748;14.326;2023-03-12T06:21:24;21.20;42.20
51613;DHT22;37694;51.748;14.326;2023-03-12T06:23:50;21.30;42.20
51613;DHT22;37694;51.748;14.326;2023-03-12T06:26:18;21.40;42.20
51613;DHT22;37694;51.748;14.326;2023-03-12T06:28:46;21.60;42.40
51613;DHT22;37694;51.748;14.326;2023-03-12T06:31:12;21.70;42.20
51613;DHT22;37694;51.748;14.326;2023-03-12T06:33:38;21.70;42.10
51613;DHT22;37694;51.748;14.326;2023-03-12T06:36:06;21.90;42.10
51613;DHT22;37694;51.748;14.326;2023-03-12T06:38:33;22.00;42.10
51613;DHT22;37694;51.748;14.326;2023-03-12T06:41:07;22.00;42.00
51613;DHT22;37694;51.748;14.326;2023-03-12T06:43:35;22.10;41.90
51613;DHT22;37694;51.748;14.326;2023-03-12T06:46:02;22.30;41.90
51613;DHT22;37694;51.748;14.326;2023-03-12T06:48:29;22.30;41.70
51613;DHT22;37694;51.748;14.326;2023-03-12T06:50:58;22.40;41.70
51613;DHT22;37694;51.748;14.326;2023-03-12T06:53:24;22.50;41.60
51613;DHT22;37694;51.748;14.326;2023-03-12T06:55:50;22.60;41.50
51613;DHT22;37694;51.748;14.326;2023-03-12T06:58:16;22.60;41.50
51613;DHT22;37694;51.748;14.326;2023-03-12T07:00:42;22.70;41.40
51613;DHT22;37694;51.748;14.326;2023-03-12T07:03:08;22.80;41.30
51613;DHT22;37694;51.748;14.326;2023-03-12T07:05:34;22.90;41.20
51613;DHT22;37694;51.748;14.326;2023-03-12T07:07:59;22.90;41.20
51613;DHT22;37694;51.748;14.326;2023-03-12T07:10:25;23.00;41.00
51613;DHT22;37694;51.748;14.326;2023-03-12T07:12:54;23.10;41.00
51613;DHT22;37694;51.748;14.326;2023-03-12T07:15:20;23.20;40.90
51613;DHT22;37694;51.748;14.326;2023-03-12T07:17:46;23.30;41.00
51613;DHT22;37694;51.748;14.326;2023-03-12T07:20:12;23.40;40.80
51613;DHT22;37694;51.748;14.326;2023-03-12T07:22:38;23.40;40.60
51613;DHT22;37694;51.748;14.326;2023-03-12T07:25:04;23.60;40.60
51613;DHT22;37694;51.748;14.326;2023-03-12T07:27:29;23.60;40.40
51613;DHT22;37694;51.748;14.326;2023-03-12T07:29:55;23.70;40.40
51613;DHT22;37694;51.748;14.326;2023-03-12T07:32:21;23.70;40.20
51613;DHT22;37694;51.748;14.326;2023-03-12T07:34:46;23.80;40.40
51613;DHT22;37694;51.748;14.326;2023-03-12T07:37:12;23.80;40.40
51613;DHT22;37694;51.748;14.326;2023-03-12T07:39:38;23.90;40.30
51613;DHT22;37694;51.748;14.326;2023-03-12T07:42:04;23.90;40.00
51613;DHT22;37694;51.748;14.326;2023-03-12T07:44:30;24.00;40.00
51613;DHT22;37694;51.748;14.326;2023-03-12T07:46:56;24.00;39.90
51613;DHT22;37694;51.748;14.326;2023-03-12T07:49:21;24.00;39.70
51613;DHT22;37694;51.748;14.326;2023-03-12T07:51:47;24.00;39.60
51613;DHT22;37694;51.748;14.326;2023-03-12T07:54:13;24.00;39.40
51613;DHT22;37694;51.748;14.326;2023-03-12T07:56:38;24.10;39.20
51613;DHT22;37694;51.748;14.326;2023-03-12T07:59:04;24.10;39.10
51613;DHT22;37694;51.748;14.326;2023-03-12T08:01:30;24.10;38.90
51613;DHT22;37694;51.748;14.326;2023-03-12T08:03:57;24.10;38.90
51613;DHT22;37694;51.748;14.326;2023-03-12T08:06:23;24.10;38.90
51613;DHT22;37694;51.748;14.326;2023-03-12T08:08:49;24.10;38.90
51613;DHT22;37694;51.748;14.326;2023-03-12T08:11:16;24.10;39.20
51613;DHT22;37694;51.748;14.326;2023-03-12T08:13:42;24.10;39.10
51613;DHT22;37694;51.748;14.326;2023-03-12T08:16:07;24.10;39.10
51613;DHT22;37694;51.748;14.326;2023-03-12T08:18:33;24.10;39.30
51613;DHT22;37694;51.748;14.326;2023-03-12T08:20:59;24.10;39.30
51613;DHT22;37694;51.748;14.326;2023-03-12T08:23:25;24.10;39.30
51613;DHT22;37694;51.748;14.326;2023-03-12T08:25:51;24.10;39.50
51613;DHT22;37694;51.748;14.326;2023-03-12T08:28:17;24.20;39.90
51613;DHT22;37694;51.748;14.326;2023-03-12T08:30:51;24.10;39.60
51613;DHT22;37694;51.748;14.326;2023-03-12T08:33:18;24.20;39.50
51613;DHT22;37694;51.748;14.326;2023-03-12T08:35:44;24.20;39.30
51613;DHT22;37694;51.748;14.326;2023-03-12T08:38:10;24.20;38.60
51613;DHT22;37694;51.748;14.326;2023-03-12T08:40:36;24.10;36.00
51613;DHT22;37694;51.748;14.326;2023-03-12T08:43:01;23.90;36.30
51613;DHT22;37694;51.748;14.326;2023-03-12T08:45:27;23.90;36.70
51613;DHT22;37694;51.748;14.326;2023-03-12T08:47:53;23.90;36.60
51613;DHT22;37694;51.748;14.326;2023-03-12T08:50:19;24.00;37.00
51613;DHT22;37694;51.748;14.326;2023-03-12T08:52:46;24.00;37.20
51613;DHT22;37694;51.748;14.326;2023-03-12T08:55:12;24.10;37.40
51613;DHT22;37694;51.748;14.326;2023-03-12T08:57:38;24.10;37.50
51613;DHT22;37694;51.748;14.326;2023-03-12T09:00:05;24.10;37.50
51613;DHT22;37694;51.748;14.326;2023-03-12T09:02:36;24.10;37.50
51613;DHT22;37694;51.748;14.326;2023-03-12T09:05:01;24.20;37.20
51613;DHT22;37694;51.748;14.326;2023-03-12T09:07:27;24.10;36.20
51613;DHT22;37694;51.748;14.326;2023-03-12T09:09:54;24.10;35.40
51613;DHT22;37694;51.748;14.326;2023-03-12T09:12:20;24.10;34.80
51613;DHT22;37694;51.748;14.326;2023-03-12T09:14:46;24.10;34.60
51613;DHT22;37694;51.748;14.326;2023-03-12T09:17:12;24.10;34.10
51613;DHT22;37694;51.748;14.326;2023-03-12T09:19:38;24.00;34.10
51613;DHT22;37694;51.748;14.326;2023-03-12T09:22:04;24.00;33.70
51613;DHT22;37694;51.748;14.326;2023-03-12T09:24:30;24.00;33.80
51613;DHT22;37694;51.748;14.326;2023-03-12T09:26:55;24.00;33.80
51613;DHT22;37694;51.748;14.326;2023-03-12T09:29:21;24.00;33.20
51613;DHT22;37694;51.748;14.326;2023-03-12T09:31:47;24.10;33.20
51613;DHT22;37694;51.748;14.326;2023-03-12T09:34:13;24.00;33.60
51613;DHT22;37694;51.748;14.326;2023-03-12T09:36:39;24.10;32.90
51613;DHT22;37694;51.748;14.326;2023-03-12T09:39:04;24.10;32.80
51613;DHT22;37694;51.748;14.326;2023-03-12T09:41:33;24.10;33.30
51613;DHT22;37694;51.748;14.326;2023-03-12T09:46:40;24.10;33.40
51613;DHT22;37694;51.748;14.326;2023-03-12T09:49:34;24.10;33.60
51613;DHT22;37694;51.748;14.326;2023-03-12T09:52:16;24.10;33.80
51613;DHT22;37694;51.748;14.326;2023-03-12T09:55:21;24.10;34.10
51613;DHT22;37694;51.748;14.326;2023-03-12T09:57:47;24.10;34.30
51613;DHT22;37694;51.748;14.326;2023-03-12T10:00:17;24.00;34.80
51613;DHT22;37694;51.748;14.326;2023-03-12T10:05:43;24.10;35.10
51613;DHT22;37694;51.748;14.326;2023-03-12T10:08:22;24.20;35.30
51613;DHT22;37694;51.748;14.326;2023-03-12T10:10:53;24.20;35.50
51613;DHT22;37694;51.748;14.326;2023-03-12T10:15:49;24.10;35.90
51613;DHT22;37694;51.748;14.326;2023-03-12T10:23:40;24.00;36.70
51613;DHT22;37694;51.748;14.326;2023-03-12T10:28:38;24.10;36.60
51613;DHT22;37694;51.748;14.326;2023-03-12T10:31:06;24.20;36.50
51613;DHT22;37694;51.748;14.326;2023-03-12T10:33:53;24.20;36.60
51613;DHT22;37694;51.748;14.326;2023-03-12T10:36:20;24.20;36.50
51613;DHT22;37694;51.748;14.326;2023-03-12T10:38:46;24.30;36.50
51613;DHT22;37694;51.748;14.326;2023-03-12T10:41:20;24.30;36.60
51613;DHT22;37694;51.748;14.326;2023-03-12T10:43:45;24.40;36.80
51613;DHT22;37694;51.748;14.326;2023-03-12T10:46:22;24.40;36.60
51613;DHT22;37694;51.748;14.326;2023-03-12T10:48:57;24.40;36.70
51613;DHT22;37694;51.748;14.326;2023-03-12T10:51:50;24.50;37.20
51613;DHT22;37694;51.748;14.326;2023-03-12T10:54:36;24.60;36.90
51613;DHT22;37694;51.748;14.326;2023-03-12T10:57:03;24.60;36.80
51613;DHT22;37694;51.748;14.326;2023-03-12T10:59:30;24.70;36.60
51613;DHT22;37694;51.748;14.326;2023-03-12T11:01:56;24.70;38.00
51613;DHT22;37694;51.748;14.326;2023-03-12T11:04:31;24.70;36.60
51613;DHT22;37694;51.748;14.326;2023-03-12T11:09:28;24.80;37.00
51613;DHT22;37694;51.748;14.326;2023-03-12T11:11:53;24.80;36.60
51613;DHT22;37694;51.748;14.326;2023-03-12T11:14:20;24.70;36.50
51613;DHT22;37694;51.748;14.326;2023-03-12T11:16:46;24.70;36.40
51613;DHT22;37694;51.748;14.326;2023-03-12T11:19:13;24.70;36.60
51613;DHT22;37694;51.748;14.326;2023-03-12T11:21:39;24.60;31.50
51613;DHT22;37694;51.748;14.326;2023-03-12T11:24:18;24.10;27.70
51613;DHT22;37694;51.748;14.326;2023-03-12T11:26:53;23.80;29.60
51613;DHT22;37694;51.748;14.326;2023-03-12T11:29:26;23.70;30.30
51613;DHT22;37694;51.748;14.326;2023-03-12T11:34:21;23.90;33.10
51613;DHT22;37694;51.748;14.326;2023-03-12T11:37:10;24.00;33.00
51613;DHT22;37694;51.748;14.326;2023-03-12T11:39:50;24.00;33.70
51613;DHT22;37694;51.748;14.326;2023-03-12T11:57:51;24.30;33.20
51613;DHT22;37694;51.748;14.326;2023-03-12T12:00:32;24.30;33.50
51613;DHT22;37694;51.748;14.326;2023-03-12T12:09:11;24.30;34.20
51613;DHT22;37694;51.748;14.326;2023-03-12T12:14:24;24.30;34.30
51613;DHT22;37694;51.748;14.326;2023-03-12T12:19:52;24.30;31.80
51613;DHT22;37694;51.748;14.326;2023-03-12T12:22:34;24.30;32.40
51613;DHT22;37694;51.748;14.326;2023-03-12T12:33:04;24.20;31.10
51613;DHT22;37694;51.748;14.326;2023-03-12T12:35:37;24.20;30.90
51613;DHT22;37694;51.748;14.326;2023-03-12T12:38:05;24.20;30.50
51613;DHT22;37694;51.748;14.326;2023-03-12T12:40:34;24.20;30.60
51613;DHT22;37694;51.748;14.326;2023-03-12T12:45:48;24.10;29.70
51613;DHT22;37694;51.748;14.326;2023-03-12T12:48:37;24.00;29.70
51613;DHT22;37694;51.748;14.326;2023-03-12T12:51:02;24.00;29.40
51613;DHT22;37694;51.748;14.326;2023-03-12T12:53:35;24.00;29.60
51613;DHT22;37694;51.748;14.326;2023-03-12T12:56:10;24.00;29.60
51613;DHT22;37694;51.748;14.326;2023-03-12T13:01:22;24.00;30.60
51613;DHT22;37694;51.748;14.326;2023-03-12T13:03:47;24.00;31.20
51613;DHT22;37694;51.748;14.326;2023-03-12T13:06:13;24.00;30.90
51613;DHT22;37694;51.748;14.326;2023-03-12T13:13:44;24.10;31.70
51613;DHT22;37694;51.748;14.326;2023-03-12T13:18:53;24.10;32.00
51613;DHT22;37694;51.748;14.326;2023-03-12T13:23:57;24.10;32.70
51613;DHT22;37694;51.748;14.326;2023-03-12T13:26:30;24.10;33.20
51613;DHT22;37694;51.748;14.326;2023-03-12T13:29:12;24.10;33.10
51613;DHT22;37694;51.748;14.326;2023-03-12T13:31:44;24.10;32.80
51613;DHT22;37694;51.748;14.326;2023-03-12T13:36:44;24.10;33.90
51613;DHT22;37694;51.748;14.326;2023-03-12T13:39:18;24.10;33.30
51613;DHT22;37694;51.748;14.326;2023-03-12T13:44:44;24.10;33.40
51613;DHT22;37694;51.748;14.326;2023-03-12T13:52:17;24.10;33.50
51613;DHT22;37694;51.748;14.326;2023-03-12T13:54:44;24.10;33.70
51613;DHT22;37694;51.748;14.326;2023-03-12T13:57:12;24.10;33.80
51613;DHT22;37694;51.748;14.326;2023-03-12T13:59:48;24.00;33.70
51613;DHT22;37694;51.748;14.326;2023-03-12T14:02:22;24.00;33.60
51613;DHT22;37694;51.748;14.326;2023-03-12T14:04:49;24.00;34.00
51613;DHT22;37694;51.748;14.326;2023-03-12T14:12:57;24.00;34.30
51613;DHT22;37694;51.748;14.326;2023-03-12T14:18:13;24.00;34.50
51613;DHT22;37694;51.748;14.326;2023-03-12T14:20:39;24.00;34.50
51613;DHT22;37694;51.748;14.326;2023-03-12T14:23:07;23.90;34.30
51613;DHT22;37694;51.748;14.326;2023-03-12T14:25:42;23.90;34.60
51613;DHT22;37694;51.748;14.326;2023-03-12T14:30:45;23.90;34.40
51613;DHT22;37694;51.748;14.326;2023-03-12T14:33:12;23.80;34.30
51613;DHT22;37694;51.748;14.326;2023-03-12T14:35:46;23.90;34.40
51613;DHT22;37694;51.748;14.326;2023-03-12T14:38:23;23.80;34.10
51613;DHT22;37694;51.748;14.326;2023-03-12T14:43:18;23.80;34.30
51613;DHT22;37694;51.748;14.326;2023-03-12T14:45:44;23.80;34.30
51613;DHT22;37694;51.748;14.326;2023-03-12T14:48:09;23.70;34.50
51613;DHT22;37694;51.748;14.326;2023-03-12T14:50:37;23.80;34.40
51613;DHT22;37694;51.748;14.326;2023-03-12T14:53:16;23.80;34.40
51613;DHT22;37694;51.748;14.326;2023-03-12T14:55:42;23.70;34.20
51613;DHT22;37694;51.748;14.326;2023-03-12T14:58:15;23.70;34.30
51613;DHT22;37694;51.748;14.326;2023-03-12T15:00:41;23.70;34.40
51613;DHT22;37694;51.748;14.326;2023-03-12T15:03:10;23.70;34.40
51613;DHT22;37694;51.748;14.326;2023-03-12T15:05:38;23.70;34.50
51613;DHT22;37694;51.748;14.326;2023-03-12T15:08:08;23.70;34.40
51613;DHT22;37694;51.748;14.326;2023-03-12T15:10:35;23.70;34.40
51613;DHT22;37694;51.748;14.326;2023-03-12T15:13:01;23.70;34.40
51613;DHT22;37694;51.748;14.326;2023-03-12T15:15:34;23.70;34.30
51613;DHT22;37694;51.748;14.326;2023-03-12T15:18:02;23.70;34.20
51613;DHT22;37694;51.748;14.326;2023-03-12T15:20:27;23.60;35.10
51613;DHT22;37694;51.748;14.326;2023-03-12T15:22:54;23.60;34.50
51613;DHT22;37694;51.748;14.326;2023-03-12T15:25:23;23.60;34.10
51613;DHT22;37694;51.748;14.326;2023-03-12T15:27:59;23.60;34.10
51613;DHT22;37694;51.748;14.326;2023-03-12T15:30:25;23.60;34.20
51613;DHT22;37694;51.748;14.326;2023-03-12T15:35:37;23.60;34.10
51613;DHT22;37694;51.748;14.326;2023-03-12T15:38:03;23.60;34.20
51613;DHT22;37694;51.748;14.326;2023-03-12T15:40:29;23.60;34.10
51613;DHT22;37694;51.748;14.326;2023-03-12T15:42:55;23.50;34.10
51613;DHT22;37694;51.748;14.326;2023-03-12T15:45:33;23.50;33.90
51613;DHT22;37694;51.748;14.326;2023-03-12T15:48:00;23.50;34.00
51613;DHT22;37694;51.748;14.326;2023-03-12T15:50:29;23.50;33.80
51613;DHT22;37694;51.748;14.326;2023-03-12T15:53:03;23.40;33.80
51613;DHT22;37694;51.748;14.326;2023-03-12T15:55:30;23.40;33.90
51613;DHT22;37694;51.748;14.326;2023-03-12T15:57:57;23.40;34.20
51613;DHT22;37694;51.748;14.326;2023-03-12T16:00:29;23.40;34.40
51613;DHT22;37694;51.748;14.326;2023-03-12T16:02:57;23.40;34.40
51613;DHT22;37694;51.748;14.326;2023-03-12T16:05:30;23.40;34.60
51613;DHT22;37694;51.748;14.326;2023-03-12T16:07:56;23.40;34.70
51613;DHT22;37694;51.748;14.326;2023-03-12T16:10:23;23.40;35.50
51613;DHT22;37694;51.748;14.326;2023-03-12T16:12:49;23.40;35.80
51613;DHT22;37694;51.748;14.326;2023-03-12T16:15:17;23.40;36.50
51613;DHT22;37694;51.748;14.326;2023-03-12T16:17:45;23.40;36.60
51613;DHT22;37694;51.748;14.326;2023-03-12T16:20:12;23.40;37.00
51613;DHT22;37694;51.748;14.326;2023-03-12T16:22:38;23.40;37.00
51613;DHT22;37694;51.748;14.326;2023-03-12T16:25:04;23.40;37.50
51613;DHT22;37694;51.748;14.326;2023-03-12T16:27:29;23.40;38.00
51613;DHT22;37694;51.748;14.326;2023-03-12T16:29:56;23.40;38.20
51613;DHT22;37694;51.748;14.326;2023-03-12T16:32:21;23.40;38.30
51613;DHT22;37694;51.748;14.326;2023-03-12T16:34:47;23.40;38.70
51613;DHT22;37694;51.748;14.326;2023-03-12T16:37:13;23.40;38.80
51613;DHT22;37694;51.748;14.326;2023-03-12T16:39:38;23.40;38.80
51613;DHT22;37694;51.748;14.326;2023-03-12T16:42:05;23.40;39.00
51613;DHT22;37694;51.748;14.326;2023-03-12T16:44:36;23.40;40.10
51613;DHT22;37694;51.748;14.326;2023-03-12T16:47:01;23.40;40.00
51613;DHT22;37694;51.748;14.326;2023-03-12T16:49:27;23.40;40.00
51613;DHT22;37694;51.748;14.326;2023-03-12T16:51:52;23.40;40.30
51613;DHT22;37694;51.748;14.326;2023-03-12T16:54:18;23.40;40.20
51613;DHT22;37694;51.748;14.326;2023-03-12T16:56:45;23.40;40.50
51613;DHT22;37694;51.748;14.326;2023-03-12T16:59:20;23.40;40.80
51613;DHT22;37694;51.748;14.326;2023-03-12T17:01:47;23.50;41.10